Terminal Aerodrome Forecast
Issued by NWS Missoula, MT

Home | Current Version | Previous Version | Text Only | Print | Product List | Glossary On
Versions: 1 2 3 4 5 6 7 8 9 10 11 12 13 14 15 16 17
970
FTUS45 KMSO 231720
TAFMSO
TAF
KMSO 231720Z 2318/2418 VRB03KT 3SM FU SCT150
     FM232200 29007KT 5SM FU SCT150
     FM240300 VRB06KT 6SM FU VCSH BKN100
     FM240900 VRB06KT 6SM FU BKN100=

USA.gov is the U.S. government's official web portal to all federal, state and local government web resources and services.